Time;durP1;ratioP1;P1;durP2;ratioP2;P2;SDS_P1;SDS_P2;PMS_P1;PMS_P2;Temp;Humidity;BMP_temperature;BMP_pressure;BME280_temperature;BME280_humidity;BME280_pressure;Samples;Min_cycle;Max_cycle;Signal;HPM_P1;HPM_P2
2023/06/25 03:42:49;;;;;;;9.80;7.20;;;;;;;16.26;94.06;99431.63;106988;1303;544808;-54
2023/06/25 03:45:16;;;;;;;14.20;7.60;;;;;;;16.22;93.74;99434.06;107446;1312;22322;-53
2023/06/25 03:47:41;;;;;;;10.30;7.20;;;;;;;16.22;93.53;99432.42;107302;1312;22547;-50
2023/06/25 03:50:07;;;;;;;12.00;6.90;;;;;;;16.23;93.14;99435.17;107535;1311;22241;-50
2023/06/25 03:52:32;;;;;;;11.40;6.60;;;;;;;16.28;93.03;99433.06;107515;1311;22258;-46
2023/06/25 03:54:57;;;;;;;8.40;6.40;;;;;;;16.30;92.81;99433.42;107517;1311;23168;-50
2023/06/25 03:57:23;;;;;;;12.10;7.00;;;;;;;16.33;92.74;99432.89;107629;1309;158357;-50
2023/06/25 03:59:49;;;;;;;10.80;6.70;;;;;;;16.39;92.48;99434.33;107744;1309;22428;-48
2023/06/25 04:02:14;;;;;;;10.20;6.30;;;;;;;16.44;92.21;99437.48;107737;1309;22741;-47
2023/06/25 04:04:39;;;;;;;9.30;6.50;;;;;;;16.44;91.62;99440.48;107738;1309;22284;-46
2023/06/25 04:07:05;;;;;;;12.40;7.00;;;;;;;16.48;91.48;99438.58;108003;1307;22328;-50
2023/06/25 04:09:30;;;;;;;10.10;6.90;;;;;;;16.55;91.48;99439.52;107995;1307;22234;-50
2023/06/25 04:11:55;;;;;;;18.50;7.00;;;;;;;16.58;91.02;99440.48;107978;1307;22242;-45
2023/06/25 04:14:20;;;;;;;8.40;6.30;;;;;;;16.57;90.67;99438.25;107993;1307;22738;-52
2023/06/25 04:16:46;;;;;;;12.00;6.80;;;;;;;16.62;90.55;99436.30;107984;1307;23171;-46
2023/06/25 04:19:11;;;;;;;17.50;6.70;;;;;;;16.68;90.49;99433.30;108006;1307;22205;-46
2023/06/25 04:21:36;;;;;;;11.70;6.80;;;;;;;16.69;89.51;99434.13;107977;1307;23278;-48
2023/06/25 04:24:02;;;;;;;9.70;5.80;;;;;;;16.74;89.38;99433.73;107965;1307;24773;-46
2023/06/25 04:26:27;;;;;;;8.30;6.60;;;;;;;16.76;88.81;99434.80;107978;1307;22416;-47
2023/06/25 04:28:52;;;;;;;11.80;6.80;;;;;;;16.78;88.55;99437.17;107994;1307;22405;-44
2023/06/25 04:31:18;;;;;;;11.90;6.70;;;;;;;16.82;88.63;99435.81;107978;1307;22457;-50
2023/06/25 04:33:43;;;;;;;8.70;6.30;;;;;;;16.85;88.36;99443.52;107987;1307;22874;-46
2023/06/25 04:36:13;;;;;;;10.10;6.50;;;;;;;16.87;88.30;99441.63;107988;1307;22223;-50
2023/06/25 04:38:39;;;;;;;11.50;6.40;;;;;;;16.92;88.44;99440.36;107981;1307;22274;-54
2023/06/25 04:41:04;;;;;;;9.20;6.10;;;;;;;16.90;87.34;99443.29;107969;1307;23015;-40
2023/06/25 04:43:29;;;;;;;11.80;6.40;;;;;;;16.95;87.75;99442.42;107968;1307;22293;-47
2023/06/25 04:45:54;;;;;;;8.00;6.20;;;;;;;16.99;87.20;99441.75;107970;1307;22433;-53
2023/06/25 04:48:20;;;;;;;7.80;6.30;;;;;;;17.03;87.28;99438.20;107999;1307;23228;-51
2023/06/25 04:50:45;;;;;;;7.80;6.20;;;;;;;17.06;86.69;99443.30;107989;1292;22344;-50
2023/06/25 04:53:10;;;;;;;6.50;5.60;;;;;;;17.07;85.50;99437.32;107940;1307;22980;-47
2023/06/25 04:55:36;;;;;;;5.90;5.20;;;;;;;17.15;85.99;99435.66;107908;1307;22271;-53
2023/06/25 04:58:01;;;;;;;11.50;5.70;;;;;;;17.17;84.77;99437.77;107879;1307;22135;-47
2023/06/25 05:00:26;;;;;;;16.30;6.00;;;;;;;17.21;84.32;99440.83;107915;1307;22484;-46
2023/06/25 05:02:51;;;;;;;7.10;5.10;;;;;;;17.27;84.06;99439.98;107877;1307;22242;-54
2023/06/25 05:05:17;;;;;;;8.60;5.30;;;;;;;17.33;83.78;99442.23;107884;1307;22237;-52
2023/06/25 05:07:42;;;;;;;6.60;4.80;;;;;;;17.39;83.98;99440.31;107892;1307;22414;-49
2023/06/25 05:10:08;;;;;;;7.60;5.10;;;;;;;17.41;82.35;99444.69;108016;1307;22493;-47
2023/06/25 05:12:33;;;;;;;8.30;5.40;;;;;;;17.48;83.06;99443.14;108006;1307;22392;-46
2023/06/25 05:14:59;;;;;;;9.20;4.80;;;;;;;17.54;82.09;99443.70;107997;1307;22351;-49
2023/06/25 05:17:25;;;;;;;7.30;4.80;;;;;;;17.58;81.10;99445.30;107996;1307;22435;-47
2023/06/25 05:19:50;;;;;;;8.70;5.10;;;;;;;17.62;80.64;99444.06;108007;1307;22245;-51
2023/06/25 05:22:15;;;;;;;12.70;5.50;;;;;;;17.66;79.83;99445.71;108019;1307;22413;-49
2023/06/25 05:24:40;;;;;;;6.50;5.30;;;;;;;17.69;80.02;99445.86;107996;1307;22329;-45
2023/06/25 05:27:06;;;;;;;9.10;5.00;;;;;;;17.73;80.67;99445.89;108019;1307;22302;-55
2023/06/25 05:29:31;;;;;;;10.70;5.40;;;;;;;17.71;78.85;99451.16;108019;1307;22244;-54
2023/06/25 05:31:56;;;;;;;6.80;5.00;;;;;;;17.76;79.26;99453.38;108002;1307;22383;-44
2023/06/25 05:34:22;;;;;;;6.80;5.10;;;;;;;17.79;79.39;99451.17;108016;1307;22425;-46
2023/06/25 05:36:47;;;;;;;11.10;5.30;;;;;;;17.80;78.95;99455.04;107997;1307;22422;-43
2023/06/25 05:39:13;;;;;;;5.50;4.80;;;;;;;17.83;79.35;99454.96;107983;1307;22269;-53
2023/06/25 05:41:41;;;;;;;8.80;4.90;;;;;;;17.87;79.75;99459.14;108028;1307;22414;-49
2023/06/25 05:44:07;;;;;;;7.10;5.00;;;;;;;17.86;79.47;99459.85;108023;1307;22258;-42
2023/06/25 05:46:32;;;;;;;7.00;4.70;;;;;;;17.89;79.61;99462.99;108013;1307;23057;-51
2023/06/25 05:48:58;;;;;;;6.90;5.50;;;;;;;17.90;79.40;99460.94;108011;1307;22897;-46
2023/06/25 05:51:23;;;;;;;5.90;5.20;;;;;;;17.93;79.56;99463.91;108023;1307;23078;-45
2023/06/25 05:53:50;;;;;;;9.00;5.50;;;;;;;17.94;78.97;99463.33;108001;1307;22239;-45
2023/06/25 05:56:16;;;;;;;;;;;;;;;17.94;78.79;99464.70;108028;1307;22510;-49
2023/06/25 05:58:41;;;;;;;8.50;5.20;;;;;;;17.92;77.86;99468.81;108010;1307;22358;-49
2023/06/25 06:01:06;;;;;;;8.80;5.20;;;;;;;17.88;77.08;99465.95;107990;1307;22224;-46
2023/06/25 06:03:32;;;;;;;7.50;5.80;;;;;;;17.89;77.01;99460.14;107999;1307;22295;-47
2023/06/25 06:05:57;;;;;;;12.40;5.60;;;;;;;17.91;77.24;99461.05;107990;1307;22208;-53
2023/06/25 06:08:24;;;;;;;8.40;5.30;;;;;;;17.96;78.06;99453.70;107987;1307;22299;-51
2023/06/25 06:10:49;;;;;;;7.70;5.50;;;;;;;18.00;77.96;99454.98;108021;1307;22277;-52
2023/06/25 06:13:15;;;;;;;7.90;5.20;;;;;;;18.03;77.40;99457.61;108010;1307;22202;-47
2023/06/25 06:15:40;;;;;;;8.00;5.90;;;;;;;18.01;77.22;99456.11;108020;1307;22269;-51
2023/06/25 06:18:06;;;;;;;11.90;5.40;;;;;;;18.00;77.15;99458.30;108007;1307;22412;-51
2023/06/25 06:20:31;;;;;;;6.70;5.50;;;;;;;18.06;77.44;99454.71;107991;1307;23063;-43
2023/06/25 06:22:58;;;;;;;7.60;5.40;;;;;;;18.05;77.02;99456.52;108022;1307;22265;-44
2023/06/25 06:25:24;;;;;;;6.90;4.80;;;;;;;18.07;77.07;99457.61;108003;1307;22283;-49
2023/06/25 06:27:49;;;;;;;7.60;5.80;;;;;;;18.08;76.84;99456.84;108027;1307;22242;-47
2023/06/25 06:30:14;;;;;;;8.70;5.80;;;;;;;18.11;76.88;99459.58;108038;1307;22240;-51
2023/06/25 06:32:40;;;;;;;7.90;5.60;;;;;;;18.14;76.98;99454.17;108022;1307;22225;-45
2023/06/25 06:35:05;;;;;;;11.80;5.60;;;;;;;18.19;77.27;99454.84;108016;1307;23028;-51
2023/06/25 06:37:30;;;;;;;9.20;5.70;;;;;;;18.24;77.29;99455.84;108010;1307;22213;-46
2023/06/25 06:39:57;;;;;;;7.10;5.20;;;;;;;18.30;77.22;99456.37;108024;1307;22247;-48
2023/06/25 06:42:22;;;;;;;5.40;4.40;;;;;;;18.37;77.12;99460.38;107992;1307;22239;-52
2023/06/25 06:44:47;;;;;;;10.10;5.60;;;;;;;18.44;75.82;99461.23;108010;1307;22278;-46
2023/06/25 06:47:12;;;;;;;9.20;4.90;;;;;;;18.48;75.09;99460.70;108017;1307;22489;-52
2023/06/25 06:49:38;;;;;;;7.70;5.40;;;;;;;18.55;75.42;99467.58;108012;1307;23027;-53
2023/06/25 06:52:03;;;;;;;8.50;5.30;;;;;;;18.63;74.81;99469.77;108029;1307;22225;-43
2023/06/25 06:54:28;;;;;;;7.40;5.40;;;;;;;18.71;74.80;99467.99;107998;1307;22245;-50
2023/06/25 06:56:54;;;;;;;10.80;5.60;;;;;;;18.84;75.34;99470.13;108012;1307;22386;-54
2023/06/25 06:59:19;;;;;;;8.30;5.80;;;;;;;18.92;74.81;99466.89;108006;1307;23478;-53
2023/06/25 07:01:44;;;;;;;8.20;5.50;;;;;;;18.96;74.21;99473.10;107997;1307;22223;-56
2023/06/25 07:04:10;;;;;;;15.00;5.70;;;;;;;19.00;75.13;99470.11;108006;1307;22875;-43
2023/06/25 07:06:35;;;;;;;8.10;5.80;;;;;;;19.05;75.03;99471.64;108013;1307;22224;-46
2023/06/25 07:09:00;;;;;;;10.60;6.10;;;;;;;19.06;74.98;99464.58;108009;1307;22397;-44
2023/06/25 07:11:26;;;;;;;10.00;6.60;;;;;;;19.10;74.95;99463.56;107754;1307;22456;-46
2023/06/25 07:13:51;;;;;;;7.20;5.60;;;;;;;19.17;74.60;99464.30;108023;1307;22400;-50
2023/06/25 07:16:17;;;;;;;8.40;5.90;;;;;;;19.17;74.46;99462.80;108005;1307;22219;-47
2023/06/25 07:18:43;;;;;;;8.60;6.30;;;;;;;19.18;74.39;99464.06;108023;1307;23110;-43
2023/06/25 07:21:09;;;;;;;9.80;6.30;;;;;;;19.21;74.63;99465.61;107977;1307;22632;-46
2023/06/25 07:23:36;;;;;;;7.10;6.40;;;;;;;19.20;73.49;99463.54;108004;1307;22376;-45
2023/06/25 07:26:01;;;;;;;8.50;7.00;;;;;;;19.20;73.84;99461.79;108016;1307;22224;-50
2023/06/25 07:28:26;;;;;;;8.70;5.50;;;;;;;19.28;74.61;99459.34;107983;1307;22381;-52
2023/06/25 07:30:51;;;;;;;12.50;5.90;;;;;;;19.33;74.11;99455.96;108012;1307;22214;-45
2023/06/25 07:33:17;;;;;;;10.80;6.40;;;;;;;19.38;73.93;99451.48;108004;1307;22394;-50
2023/06/25 07:35:42;;;;;;;11.10;6.50;;;;;;;19.51;74.53;99452.99;108030;1307;22205;-50
2023/06/25 07:38:07;;;;;;;9.40;6.40;;;;;;;19.62;73.43;99461.85;108006;1307;22469;-48
2023/06/25 07:40:32;;;;;;;8.70;5.50;;;;;;;19.71;72.91;99466.14;108002;1307;22206;-47
2023/06/25 07:42:58;;;;;;;8.30;5.90;;;;;;;19.83;72.69;99466.51;108024;1307;22216;-53
2023/06/25 07:45:23;;;;;;;8.50;5.50;;;;;;;19.88;72.24;99461.39;108028;1307;22253;-50
2023/06/25 07:47:48;;;;;;;12.90;6.10;;;;;;;19.95;71.88;99461.53;108028;1307;23073;-47
2023/06/25 07:50:14;;;;;;;9.50;5.90;;;;;;;20.03;72.32;99459.73;108026;1307;22279;-53
2023/06/25 07:52:39;;;;;;;9.80;5.70;;;;;;;20.06;70.66;99462.29;108020;1307;22883;-47
2023/06/25 07:55:05;;;;;;;10.90;6.20;;;;;;;20.08;70.53;99456.74;108003;1307;22234;-47
2023/06/25 07:57:30;;;;;;;13.20;6.40;;;;;;;20.18;70.96;99458.35;108013;1307;22299;-44
2023/06/25 07:59:55;;;;;;;9.10;6.20;;;;;;;20.25;70.37;99456.59;108016;1307;23140;-47
2023/06/25 08:02:21;;;;;;;7.60;5.60;;;;;;;20.34;70.45;99452.73;108019;1307;22730;-47
2023/06/25 08:04:46;;;;;;;10.40;5.90;;;;;;;20.40;70.52;99453.98;107996;1307;22299;-45
2023/06/25 08:07:11;;;;;;;6.90;6.10;;;;;;;20.49;70.21;99449.17;107991;1307;22215;-50
2023/06/25 08:09:36;;;;;;;10.40;5.50;;;;;;;20.61;69.79;99444.70;108021;1307;23046;-46
2023/06/25 08:12:02;;;;;;;10.60;5.70;;;;;;;20.72;68.27;99446.72;107984;1307;22498;-42
2023/06/25 08:14:27;;;;;;;9.20;6.00;;;;;;;20.83;68.29;99449.58;108005;1307;23724;-47
2023/06/25 08:16:53;;;;;;;11.50;5.60;;;;;;;20.94;68.34;99447.45;108018;1307;22247;-45
2023/06/25 08:19:18;;;;;;;9.60;5.50;;;;;;;21.02;66.77;99444.55;107999;1307;22395;-54
2023/06/25 08:21:44;;;;;;;9.80;6.10;;;;;;;21.12;66.60;99439.67;108004;1307;22194;-52
2023/06/25 08:24:09;;;;;;;7.30;5.60;;;;;;;21.20;66.57;99437.13;108008;1307;22205;-41
2023/06/25 08:26:34;;;;;;;8.10;5.80;;;;;;;21.36;67.28;99436.58;107993;1307;22214;-55
2023/06/25 08:28:59;;;;;;;10.00;5.80;;;;;;;21.55;67.20;99438.57;107986;1307;22403;-52
2023/06/25 08:31:25;;;;;;;10.60;5.90;;;;;;;21.74;67.29;99430.42;108014;1307;23130;-50
2023/06/25 08:33:50;;;;;;;11.20;5.80;;;;;;;21.99;66.88;99432.05;107993;1307;23032;-51
2023/06/25 08:36:15;;;;;;;7.70;5.70;;;;;;;22.23;66.19;99435.13;108005;1307;22246;-47
2023/06/25 08:38:40;;;;;;;7.00;5.20;;;;;;;22.48;65.98;99440.14;108004;1307;24384;-49
2023/06/25 08:41:06;;;;;;;7.60;5.30;;;;;;;22.49;62.69;99439.88;107987;1307;22353;-54
2023/06/25 08:43:31;;;;;;;6.90;5.10;;;;;;;22.41;63.37;99438.63;108031;1307;22289;-46
2023/06/25 08:45:57;;;;;;;12.40;5.90;;;;;;;22.41;61.76;99434.88;108013;1307;22385;-50
2023/06/25 08:48:26;;;;;;;7.70;5.70;;;;;;;22.48;62.89;99433.67;108020;1289;22262;-49
2023/06/25 08:50:57;;;;;;;8.90;5.60;;;;;;;22.57;61.31;99432.15;108017;1307;23184;-45
2023/06/25 08:53:27;;;;;;;8.60;5.00;;;;;;;22.77;61.78;99431.35;108003;1307;22404;-45
2023/06/25 08:55:57;;;;;;;5.50;4.60;;;;;;;23.02;61.32;99433.47;107997;1307;22550;-41
2023/06/25 08:58:24;;;;;;;9.40;4.90;;;;;;;23.20;60.10;99430.50;108007;1307;22120;-52
2023/06/25 09:00:49;;;;;;;10.10;4.70;;;;;;;23.34;58.08;99428.29;108004;1307;22314;-52
2023/06/25 09:03:15;;;;;;;9.50;5.40;;;;;;;23.56;58.20;99427.42;107982;1307;22305;-49
2023/06/25 09:05:50;;;;;;;7.60;5.60;;;;;;;23.67;56.84;99429.75;107977;1307;22822;-48
2023/06/25 09:08:16;;;;;;;5.50;5.00;;;;;;;23.79;57.53;99428.31;108023;1287;22396;-47
2023/06/25 09:10:41;;;;;;;6.00;4.70;;;;;;;23.97;56.27;99421.71;108001;1307;22231;-47
2023/06/25 09:13:07;;;;;;;6.60;4.90;;;;;;;24.23;55.72;99427.52;107971;1307;22227;-49
2023/06/25 09:15:32;;;;;;;9.20;4.70;;;;;;;24.12;54.07;99424.56;107985;1307;23156;-44
2023/06/25 09:17:57;;;;;;;5.90;4.60;;;;;;;23.94;56.38;99421.13;107995;1307;22240;-46
2023/06/25 09:20:23;;;;;;;4.70;4.30;;;;;;;23.69;55.45;99422.41;107993;1307;22232;-42
2023/06/25 09:22:50;;;;;;;7.00;4.90;;;;;;;23.51;55.37;99422.38;107985;1307;22770;-47
2023/06/25 09:25:16;;;;;;;5.90;4.50;;;;;;;23.69;56.06;99424.75;107991;1307;22689;-55
2023/06/25 09:27:41;;;;;;;4.90;4.40;;;;;;;23.84;54.42;99425.27;108014;1307;22449;-50
2023/06/25 09:30:10;;;;;;;5.70;4.50;;;;;;;23.85;52.33;99425.16;108014;1307;22216;-46
2023/06/25 09:32:36;;;;;;;7.40;4.00;;;;;;;24.22;53.07;99424.52;108010;1307;22395;-51
2023/06/25 09:35:03;;;;;;;5.20;4.50;;;;;;;24.74;49.79;99422.21;107999;1307;23270;-48
2023/06/25 09:37:28;;;;;;;;;;;;;;;25.24;48.02;99415.63;108015;1307;22417;-47
2023/06/25 09:39:53;;;;;;;5.70;4.20;;;;;;;25.85;47.27;99409.52;108012;1307;22469;-42
2023/06/25 09:42:19;;;;;;;6.60;4.90;;;;;;;26.56;48.30;99410.42;108016;1307;22400;-52
2023/06/25 09:44:50;;;;;;;7.00;4.40;;;;;;;27.09;46.60;99414.98;108000;1307;22424;-50
2023/06/25 09:47:18;;;;;;;7.00;4.20;;;;;;;27.21;43.60;99415.84;108021;1307;22220;-49
2023/06/25 09:49:44;;;;;;;4.60;4.20;;;;;;;26.86;43.42;99417.45;107995;1307;23137;-53
2023/06/25 09:52:15;;;;;;;5.20;4.00;;;;;;;26.42;43.93;99413.73;108014;1307;23109;-52
2023/06/25 09:54:42;;;;;;;6.20;4.00;;;;;;;26.18;45.64;99411.74;108015;1307;22316;-50
2023/06/25 09:57:16;;;;;;;4.60;4.20;;;;;;;25.86;45.83;99407.59;108018;1307;22241;-49
2023/06/25 09:59:41;;;;;;;4.40;4.00;;;;;;;26.16;45.00;99408.47;107986;1307;22213;-50
2023/06/25 10:02:07;;;;;;;5.70;3.60;;;;;;;27.01;43.57;99416.29;107985;1307;22219;-46
2023/06/25 10:04:34;;;;;;;4.20;3.80;;;;;;;27.78;44.11;99409.63;108001;1307;22443;-46
2023/06/25 10:07:00;;;;;;;;;;;;;;;28.37;41.72;99404.40;108016;1307;23110;-51
2023/06/25 10:09:26;;;;;;;3.70;3.50;;;;;;;28.67;39.96;99403.55;108000;1307;22400;-50
2023/06/25 10:12:03;;;;;;;6.00;3.80;;;;;;;28.62;41.16;99404.55;108006;1307;22464;-51
2023/06/25 10:14:37;;;;;;;4.80;3.70;;;;;;;28.02;40.80;99405.52;107999;1307;22602;-49
2023/06/25 10:17:04;;;;;;;5.10;3.70;;;;;;;27.37;41.50;99406.92;107994;1307;23148;-55
2023/06/25 10:19:30;;;;;;;4.70;4.20;;;;;;;27.10;41.65;99406.77;108020;1307;22300;-46
2023/06/25 10:22:11;;;;;;;4.30;3.90;;;;;;;26.92;42.19;99403.05;108012;1307;23139;-51
2023/06/25 10:24:41;;;;;;;5.80;3.70;;;;;;;27.40;40.71;99400.30;108022;1307;22184;-49
2023/06/25 10:27:18;;;;;;;7.70;3.60;;;;;;;28.22;38.18;99394.59;108012;1307;22299;-42
2023/06/25 10:29:43;;;;;;;5.40;3.40;;;;;;;28.96;36.64;99392.23;108011;1307;23126;-49
2023/06/25 10:32:10;;;;;;;5.70;3.50;;;;;;;29.70;35.29;99388.38;108010;1307;22393;-47
2023/06/25 10:34:39;;;;;;;5.90;3.40;;;;;;;30.09;34.88;99390.66;108006;1307;22227;-50
2023/06/25 10:37:06;;;;;;;4.20;3.10;;;;;;;30.48;33.93;99394.63;107988;1307;23125;-47
2023/06/25 10:39:38;;;;;;;6.40;3.40;;;;;;;30.54;32.93;99393.83;108020;1307;22941;-46
2023/06/25 10:42:04;;;;;;;5.40;3.50;;;;;;;30.10;32.76;99389.64;107990;1307;22258;-45
2023/06/25 10:44:30;;;;;;;6.10;3.10;;;;;;;30.13;33.03;99384.23;108018;1307;22470;-48
2023/06/25 10:47:07;;;;;;;4.50;3.50;;;;;;;30.17;33.01;99387.15;108011;1307;22235;-49
2023/06/25 10:49:33;;;;;;;4.90;3.10;;;;;;;29.77;32.50;99384.41;108016;1307;23046;-53
2023/06/25 10:51:59;;;;;;;7.80;3.10;;;;;;;29.47;33.23;99382.16;108010;1307;23314;-53
2023/06/25 10:54:25;;;;;;;6.80;3.20;;;;;;;29.97;35.45;99376.41;108001;1307;22058;-49
2023/06/25 10:56:53;;;;;;;7.80;3.80;;;;;;;30.58;33.89;99382.13;108029;1307;23106;-53
2023/06/25 10:59:22;;;;;;;6.40;3.20;;;;;;;31.08;31.93;99383.80;107993;1307;22271;-44
2023/06/25 11:01:48;;;;;;;3.70;3.30;;;;;;;31.44;31.03;99388.60;108008;1307;22235;-46
2023/06/25 11:04:14;;;;;;;9.00;3.50;;;;;;;31.79;30.96;99391.27;108024;1307;22328;-50
2023/06/25 11:06:39;;;;;;;5.10;3.20;;;;;;;31.63;31.11;99386.77;108003;1307;23000;-44
2023/06/25 11:09:05;;;;;;;3.40;3.10;;;;;;;31.62;29.96;99382.23;108031;1307;22381;-47
2023/06/25 11:11:31;;;;;;;3.70;2.70;;;;;;;32.13;29.39;99381.14;107988;1307;22380;-45
2023/06/25 11:13:56;;;;;;;4.30;2.60;;;;;;;32.40;28.87;99379.65;108009;1307;22386;-50
2023/06/25 11:16:21;;;;;;;4.30;3.30;;;;;;;32.81;28.19;99377.25;107991;1307;22864;-50
2023/06/25 11:18:50;;;;;;;3.90;3.30;;;;;;;33.52;28.80;99377.20;107980;1307;22315;-50
2023/06/25 11:21:16;;;;;;;3.50;3.00;;;;;;;33.17;27.07;99373.98;107990;1307;22965;-52
2023/06/25 11:23:45;;;;;;;4.00;3.10;;;;;;;32.59;27.75;99372.14;108043;1307;22274;-47
2023/06/25 11:26:13;;;;;;;5.00;2.50;;;;;;;32.37;28.49;99371.73;108024;1307;22275;-48
2023/06/25 11:28:38;;;;;;;3.70;3.20;;;;;;;32.69;28.08;99378.71;108003;1307;22492;-47
2023/06/25 11:31:04;;;;;;;3.40;3.10;;;;;;;32.26;27.74;99374.64;107994;1307;22228;-56
2023/06/25 11:33:31;;;;;;;3.90;3.00;;;;;;;32.02;28.65;99369.80;108007;1307;22473;-45
2023/06/25 11:36:10;;;;;;;4.30;3.30;;;;;;;31.40;28.62;99373.50;108002;1307;22232;-50
2023/06/25 11:38:35;;;;;;;5.80;3.30;;;;;;;30.60;29.07;99366.76;108029;1307;22516;-50
2023/06/25 11:41:01;;;;;;;4.60;3.10;;;;;;;30.25;30.08;99367.20;108002;1307;22942;-47
2023/06/25 11:43:27;;;;;;;5.80;3.00;;;;;;;29.75;29.78;99360.61;108022;1307;22400;-45
2023/06/25 11:45:53;;;;;;;;;;;;;;;29.37;30.49;99361.05;108030;1307;22420;-47
2023/06/25 11:48:20;;;;;;;3.30;2.90;;;;;;;29.14;30.86;99356.19;108017;1307;22219;-44
2023/06/25 11:50:47;;;;;;;;;;;;;;;28.92;31.37;99354.95;107575;1307;22440;-51
2023/06/25 11:53:13;;;;;;;3.40;3.10;;;;;;;28.74;31.84;99351.41;108024;1307;22206;-47
2023/06/25 11:55:39;;;;;;;5.30;3.00;;;;;;;28.58;31.90;99351.75;108019;1307;22230;-43
2023/06/25 11:58:05;;;;;;;4.80;3.30;;;;;;;28.57;32.46;99344.84;108013;1307;22222;-42
2023/06/25 12:00:30;;;;;;;3.90;2.80;;;;;;;29.20;31.40;99344.53;107998;1307;22387;-52
2023/06/25 12:02:55;;;;;;;4.40;2.80;;;;;;;29.79;29.56;99345.97;108016;1307;22374;-51
2023/06/25 12:05:20;;;;;;;3.10;2.40;;;;;;;30.38;28.72;99343.48;108013;1283;22234;-49
2023/06/25 12:07:46;;;;;;;3.40;2.30;;;;;;;30.96;27.72;99341.48;108018;1307;22443;-44
2023/06/25 12:10:12;;;;;;;2.80;2.30;;;;;;;31.25;26.60;99344.89;108011;1307;22234;-49
2023/06/25 12:12:37;;;;;;;3.30;2.60;;;;;;;31.46;25.92;99338.71;107994;1307;22237;-44
2023/06/25 12:15:03;;;;;;;3.80;2.70;;;;;;;31.63;26.43;99332.08;107983;1307;22378;-45
2023/06/25 12:17:28;;;;;;;2.40;2.20;;;;;;;31.75;26.16;99332.14;107983;1307;22235;-49
2023/06/25 12:19:53;;;;;;;9.30;2.70;;;;;;;31.12;25.54;99336.90;107992;1307;22988;-44
2023/06/25 12:22:19;;;;;;;2.40;2.20;;;;;;;30.67;25.86;99330.73;108007;1307;22209;-50
2023/06/25 12:24:44;;;;;;;2.50;2.30;;;;;;;30.25;26.20;99322.45;108002;1307;22498;-49
2023/06/25 12:27:09;;;;;;;4.00;2.50;;;;;;;30.02;27.14;99317.44;108028;1307;23253;-49
2023/06/25 12:29:35;;;;;;;2.40;2.20;;;;;;;29.73;27.58;99319.01;108004;1307;22855;-47
2023/06/25 12:32:01;;;;;;;4.80;2.30;;;;;;;29.54;28.58;99311.14;108003;1307;22390;-49
2023/06/25 12:34:26;;;;;;;2.80;2.20;;;;;;;29.57;28.77;99308.31;108001;1307;22707;-48
2023/06/25 12:36:51;;;;;;;3.10;2.50;;;;;;;29.75;29.11;99308.41;107994;1307;23423;-54
2023/06/25 12:39:17;;;;;;;4.70;2.30;;;;;;;29.88;28.63;99308.50;107988;1307;23045;-53
2023/06/25 12:41:42;;;;;;;3.50;2.30;;;;;;;29.95;28.46;99311.49;108017;1307;22278;-46
2023/06/25 12:44:07;;;;;;;2.50;2.30;;;;;;;30.04;28.63;99303.96;108002;1307;22280;-47
2023/06/25 12:46:33;;;;;;;3.30;2.70;;;;;;;29.94;28.63;99303.61;108005;1307;23178;-46
2023/06/25 12:48:58;;;;;;;3.70;2.30;;;;;;;29.83;28.26;99304.66;108018;1307;22208;-41
2023/06/25 12:51:23;;;;;;;4.20;2.70;;;;;;;29.88;28.50;99302.70;107998;1307;22303;-42
2023/06/25 12:53:49;;;;;;;2.50;2.30;;;;;;;29.70;29.23;99294.69;107995;1307;22240;-49
2023/06/25 12:56:14;;;;;;;3.20;2.60;;;;;;;29.57;28.92;99294.09;107993;1307;22283;-50
2023/06/25 12:58:40;;;;;;;4.70;3.10;;;;;;;29.47;29.66;99292.08;107552;1307;23360;-55
2023/06/25 13:01:05;;;;;;;2.20;2.00;;;;;;;29.30;29.45;99292.86;107989;1307;22212;-45
2023/06/25 13:03:30;;;;;;;2.60;2.40;;;;;;;28.89;29.94;99291.17;108006;1307;22292;-51
2023/06/25 13:05:55;;;;;;;2.50;2.30;;;;;;;28.81;29.85;99293.70;107994;1307;23711;-46
2023/06/25 13:08:23;;;;;;;3.60;2.40;;;;;;;28.67;29.69;99292.80;107998;1307;22214;-49
2023/06/25 13:10:49;;;;;;;5.70;2.50;;;;;;;28.65;29.88;99293.26;107995;1307;22166;-47
2023/06/25 13:13:14;;;;;;;2.40;2.20;;;;;;;28.54;29.43;99286.75;107994;1307;22409;-43
2023/06/25 13:15:39;;;;;;;4.50;2.40;;;;;;;28.54;29.20;99286.80;108008;1307;23139;-43
2023/06/25 13:18:04;;;;;;;14.40;2.90;;;;;;;28.39;30.33;99280.05;107993;1307;22929;-51
2023/06/25 13:20:30;;;;;;;2.60;1.90;;;;;;;28.44;30.91;99282.13;108015;1307;22228;-50
2023/06/25 13:22:55;;;;;;;2.50;2.20;;;;;;;28.37;29.90;99277.08;107873;1308;22388;-45
2023/06/25 13:25:21;;;;;;;2.20;2.00;;;;;;;28.23;30.73;99282.84;107888;1308;22253;-57
2023/06/25 13:27:47;;;;;;;2.70;2.20;;;;;;;28.05;30.29;99278.13;107860;1308;22409;-46
2023/06/25 13:30:12;;;;;;;2.40;2.10;;;;;;;28.14;29.82;99274.84;107686;1308;22334;-52
2023/06/25 13:32:38;;;;;;;4.20;2.40;;;;;;;28.14;29.99;99270.73;107861;1308;22249;-46
2023/06/25 13:35:04;;;;;;;8.50;2.40;;;;;;;28.06;30.18;99274.59;107888;1308;22958;-46
2023/06/25 13:37:30;;;;;;;3.00;2.30;;;;;;;27.91;30.17;99267.66;107861;1308;22078;-47
2023/06/25 13:39:55;;;;;;;2.60;2.20;;;;;;;27.74;30.25;99271.27;107845;1308;22228;-49
2023/06/25 13:42:21;;;;;;;3.60;2.70;;;;;;;27.68;30.78;99262.83;107849;1308;22225;-44
2023/06/25 13:44:46;;;;;;;3.00;2.30;;;;;;;27.64;30.10;99253.83;107840;1308;22224;-49
2023/06/25 13:47:12;;;;;;;7.00;2.40;;;;;;;27.71;30.48;99257.08;107859;1308;22921;-50
2023/06/25 13:49:37;;;;;;;2.30;2.00;;;;;;;27.84;30.19;99256.45;107839;1308;22273;-51
2023/06/25 13:52:02;;;;;;;6.30;2.30;;;;;;;27.84;29.58;99256.69;107855;1308;22222;-51
2023/06/25 13:54:28;;;;;;;2.60;2.10;;;;;;;27.87;29.63;99258.29;107849;1308;22221;-49
2023/06/25 13:56:53;;;;;;;3.50;2.50;;;;;;;28.01;30.04;99258.67;107843;1308;22992;-52
2023/06/25 13:59:19;;;;;;;4.50;2.30;;;;;;;27.89;29.68;99262.33;107840;1308;22218;-54
2023/06/25 14:01:44;;;;;;;2.60;2.30;;;;;;;27.84;30.29;99261.02;107855;1308;22434;-49
2023/06/25 14:04:10;;;;;;;3.50;2.50;;;;;;;27.72;30.44;99261.06;107866;1308;22405;-50
2023/06/25 14:06:35;;;;;;;2.50;2.30;;;;;;;27.63;30.51;99258.80;107855;1308;22557;-45
2023/06/25 14:09:01;;;;;;;2.50;2.30;;;;;;;27.39;30.81;99260.06;107862;1308;22290;-52
2023/06/25 14:11:26;;;;;;;4.30;2.30;;;;;;;27.26;30.82;99256.81;107852;1308;23018;-47
2023/06/25 14:13:52;;;;;;;4.10;2.60;;;;;;;27.16;30.83;99254.77;107831;1308;22285;-44
2023/06/25 14:16:18;;;;;;;2.60;2.40;;;;;;;27.03;30.78;99253.97;107838;1308;22360;-44
2023/06/25 14:18:43;;;;;;;2.80;2.30;;;;;;;26.85;31.12;99249.03;107869;1308;22393;-51
2023/06/25 14:21:09;;;;;;;2.60;2.40;;;;;;;26.63;31.55;99250.25;107872;1308;22463;-46
2023/06/25 14:23:34;;;;;;;2.50;2.30;;;;;;;26.52;31.53;99244.83;107841;1308;22160;-49
2023/06/25 14:25:59;;;;;;;2.40;2.20;;;;;;;26.45;31.62;99245.58;107838;1308;22945;-49
2023/06/25 14:28:25;;;;;;;3.00;2.00;;;;;;;26.38;31.73;99240.69;107847;1308;22218;-48
2023/06/25 14:30:50;;;;;;;3.70;2.60;;;;;;;26.31;31.93;99242.42;107853;1308;24144;-49
2023/06/25 14:33:15;;;;;;;6.20;3.00;;;;;;;26.16;32.36;99242.14;107859;1308;23856;-52
2023/06/25 14:35:41;;;;;;;2.50;2.10;;;;;;;26.06;32.79;99242.09;107864;1308;22247;-50
2023/06/25 14:38:06;;;;;;;3.50;2.40;;;;;;;25.94;32.80;99238.55;107845;1308;22212;-49
2023/06/25 14:40:31;;;;;;;8.50;2.70;;;;;;;25.81;33.16;99236.98;107861;1308;22690;-48
2023/06/25 14:42:57;;;;;;;3.80;2.60;;;;;;;25.79;33.32;99238.83;107852;1308;22973;-50
2023/06/25 14:45:22;;;;;;;3.60;2.70;;;;;;;25.74;33.71;99236.95;107852;1308;22414;-43
2023/06/25 14:47:47;;;;;;;4.70;3.10;;;;;;;25.63;33.94;99234.10;107854;1308;22331;-49
2023/06/25 14:50:12;;;;;;;6.00;2.80;;;;;;;25.64;34.00;99236.31;107839;1308;22434;-42
2023/06/25 14:52:38;;;;;;;3.20;2.70;;;;;;;25.67;33.87;99233.04;107866;1308;22389;-46
2023/06/25 14:55:03;;;;;;;2.70;2.50;;;;;;;25.70;33.98;99230.39;107858;1308;22215;-47
2023/06/25 14:57:29;;;;;;;6.00;2.70;;;;;;;25.71;34.38;99227.76;107873;1308;22454;-46
2023/06/25 14:59:54;;;;;;;3.10;2.80;;;;;;;25.87;34.27;99223.71;107880;1308;22251;-49